Latest Weather Observations for Mount William

IDV60801

Issued at 4:32 am EST Tuesday 30 May 2017 (issued every 30 minutes, with the page automatically refreshed every 10 minutes)

About weather observations | Map of weather stations | Latest weather observations for VIC | Other Formats
Station Details ID: 079103 Name: MOUNT WILLIAM Lat: -37.30 Lon: 142.60 Height: 1150.0 m
Data from the previous 72 hours. | See also: Recent months at Mount William
Date/Time
EST
Temp
°C
App
Temp
°C
Dew
Point
°C
Rel
Hum
%
Delta-T
°C
Wind Press
QNH
hPa
Press
MSL
hPa
Rain since
9am
mm
Dir  Spd
km/h
Gust
km/h
Spd
kts
Gust
kts
30/04:30am 5.0 -0.3 4.9 99 0.0 W 22 37 12 20 - - 14.6
30/04:00am 4.9 -0.1 4.8 99 0.0 W 20 30 11 16 - - 13.2
30/03:30am 4.8 0.4 4.7 99 0.0 W 17 32 9 17 - - 12.2
30/03:00am 4.7 0.3 4.6 99 0.0 W 17 35 9 19 - - 12.2
30/02:30am 5.0 0.1 4.9 99 0.0 W 20 44 11 24 - - 11.0
30/02:00am 4.8 -0.9 4.7 99 0.0 W 24 37 13 20 - - 10.0
30/01:30am 4.6 -1.6 4.5 99 0.0 W 26 43 14 23 - - 9.2
30/01:00am 4.6 -2.3 4.5 99 0.0 W 30 46 16 25 - - 9.0
30/12:30am 4.8 -2.5 4.7 99 0.0 W 32 50 17 27 - - 8.8
30/12:06am 4.7 -2.2 4.6 99 0.0 W 30 52 16 28 - - 8.6
30/12:00am 4.9 -1.2 4.8 99 0.0 W 26 41 14 22 - - 8.6
 
Date/Time
EST
Temp
°C
App
Temp
°C
Dew
Point
°C
Rel
Hum
%
Delta-T
°C
Wind Press
QNH
hPa
Press
MSL
hPa
Rain since
9am
mm
Dir  Spd
km/h
Gust
km/h
Spd
kts
Gust
kts
29/11:39pm 5.0 -1.8 4.9 99 0.0 W 30 52 16 28 - - 8.2
29/11:30pm 5.2 -1.6 5.1 99 0.0 W 30 48 16 26 - - 8.2
29/11:00pm 5.2 -0.5 5.1 99 0.0 W 24 33 13 18 - - 7.2
29/10:30pm 5.1 -1.7 5.0 99 0.0 WNW 30 50 16 27 - - 6.6
29/10:03pm 5.1 -2.1 5.0 99 0.0 WNW 32 52 17 28 - - 5.8
29/10:00pm 5.2 -2.0 5.1 99 0.0 WNW 32 43 17 23 - - 5.6
29/09:37pm 5.1 -1.7 5.0 99 0.0 WNW 30 48 16 26 - - 4.8
29/09:30pm 5.0 -2.2 4.9 99 0.0 WNW 32 46 17 25 - - 4.6
29/09:24pm 5.0 -2.8 4.9 99 0.0 WNW 35 56 19 30 - - 4.6
29/09:00pm 4.9 -2.3 4.8 99 0.0 WNW 32 43 17 23 - - 4.0
29/08:40pm 4.8 -2.5 4.7 99 0.0 WNW 32 52 17 28 - - 2.8
29/08:30pm 4.8 -3.0 4.7 99 0.0 WNW 35 48 19 26 - - 2.6
29/08:00pm 4.6 -3.3 4.5 99 0.0 WNW 35 50 19 27 - - 1.4
29/07:30pm 4.4 -2.9 4.3 99 0.0 WNW 32 46 17 25 - - 0.6
29/07:00pm 4.1 -2.9 4.0 99 0.0 WNW 30 43 16 23 - - 0.6
29/06:30pm 3.9 -2.8 3.8 99 0.0 WNW 28 37 15 20 - - 0.4
29/06:00pm 3.8 -2.1 3.7 99 0.0 WNW 24 35 13 19 - - 0.4
29/05:30pm 3.7 -1.5 3.6 99 0.0 WNW 20 32 11 17 - - 0.2
29/05:00pm 3.6 -1.6 3.5 99 0.0 WNW 20 32 11 17 - - 0.2
29/04:30pm 3.5 -2.1 3.4 99 0.0 W 22 35 12 19 - - 0.0
29/04:00pm 3.5 -1.5 3.4 99 0.0 W 19 26 10 14 - - 0.0
29/03:30pm 3.4 -1.7 3.3 99 0.0 W 19 30 10 16 - - 0.0
29/03:00pm 3.3 -1.8 3.2 99 0.0 W 19 26 10 14 - - 0.0
29/02:30pm 3.3 -2.3 3.2 99 0.0 WSW 22 32 12 17 - - 0.0
29/02:00pm 3.1 -2.0 3.0 99 0.0 W 19 32 10 17 - - 0.0
29/01:30pm 3.0 -1.4 2.9 99 0.0 W 15 24 8 13 - - 0.0
29/01:00pm 2.8 -1.6 2.7 99 0.0 W 15 26 8 14 - - 0.0
29/12:30pm 3.3 -1.0 3.2 99 0.0 W 15 26 8 14 - - 0.0
29/12:00pm 2.7 -2.5 2.6 99 0.0 W 19 33 10 18 - - 0.0
29/11:30am 2.1 -3.4 2.0 99 0.0 WSW 20 33 11 18 - - 0.0
29/11:00am 2.2 -3.6 2.1 99 0.0 W 22 32 12 17 - - 0.0
29/10:30am 2.3 -3.9 2.2 99 0.0 W 24 39 13 21 - - 0.0
29/10:00am 2.0 -3.5 1.9 99 0.0 W 20 35 11 19 - - 0.0
29/09:30am 1.9 -3.4 1.8 99 0.0 WSW 19 33 10 18 - - 0.0
29/09:00am 1.5 -4.4 1.4 99 0.0 WSW 22 33 12 18 - - 3.2
29/08:30am 1.1 -4.9 1.0 99 0.0 WSW 22 32 12 17 - - 3.2
29/08:00am 1.0 -5.0 0.9 99 0.0 WSW 22 32 12 17 - - 3.2
29/07:30am 1.0 -5.4 0.9 99 0.0 WSW 24 35 13 19 - - 3.2
29/07:00am 1.0 -6.2 0.9 99 0.0 WSW 28 41 15 22 - - 3.2
29/06:30am 1.0 -6.2 0.9 99 0.0 WSW 28 39 15 21 - - 3.2
29/06:00am 1.0 -6.5 0.9 99 0.0 WSW 30 44 16 24 - - 3.2
29/05:30am 0.9 -6.7 0.8 99 0.0 WSW 30 44 16 24 - - 3.2
29/05:00am 0.8 -7.7 0.7 99 0.0 WSW 35 44 19 24 - - 3.2
29/04:30am 0.8 -7.3 0.7 99 0.0 WSW 33 46 18 25 - - 3.2
29/04:00am 0.9 -7.0 0.8 99 0.0 WSW 32 44 17 24 - - 3.0
29/03:30am 0.9 -6.7 0.8 99 0.0 WSW 30 46 16 25 - - 3.0
29/03:00am 0.8 -6.8 0.7 99 0.0 WSW 30 43 16 23 - - 3.0
29/02:30am 0.7 -6.9 0.6 99 0.0 WSW 30 44 16 24 - - 3.0
29/02:00am 0.8 -5.6 0.7 99 0.0 WSW 24 35 13 19 - - 3.0
29/01:30am 0.7 -6.9 0.6 99 0.0 WSW 30 39 16 21 - - 3.0
29/01:00am 0.7 -6.5 0.6 99 0.0 WSW 28 39 15 21 - - 3.0
29/12:30am 0.7 -6.5 0.6 99 0.0 WSW 28 43 15 23 - - 3.0
29/12:10am 0.7 -6.5 0.6 99 0.0 WSW 28 48 15 26 - - 3.0
29/12:00am 0.7 -6.1 0.6 99 0.0 WSW 26 44 14 24 - - 3.0
 
Date/Time
EST
Temp
°C
App
Temp
°C
Dew
Point
°C
Rel
Hum
%
Delta-T
°C
Wind Press
QNH
hPa
Press
MSL
hPa
Rain since
9am
mm
Dir  Spd
km/h
Gust
km/h
Spd
kts
Gust
kts
28/11:33pm 0.7 -6.5 0.6 99 0.0 WSW 28 48 15 26 - - 3.0
28/11:30pm 0.6 -6.2 0.5 99 0.0 WSW 26 46 14 25 - - 3.0
28/11:04pm 0.7 -6.5 0.6 99 0.0 WSW 28 46 15 25 - - 2.8
28/11:00pm 0.6 -6.6 0.5 99 0.0 WSW 28 44 15 24 - - 2.8
28/10:31pm 0.6 -7.4 0.5 99 0.0 WSW 32 52 17 28 - - 2.8
28/10:30pm 0.6 -7.6 0.5 99 0.0 WSW 33 52 18 28 - - 2.8
28/10:01pm 0.5 -8.1 0.4 99 0.0 SW 35 56 19 30 - - 2.8
28/10:00pm 0.5 -8.5 0.4 99 0.0 SW 37 56 20 30 - - 2.8
28/09:33pm 0.6 -7.6 0.5 99 0.0 WSW 33 54 18 29 - - 2.8
28/09:30pm 0.7 -7.8 0.6 99 0.0 WSW 35 54 19 29 - - 2.8
28/09:00pm 0.6 -8.3 0.5 99 0.0 WSW 37 57 20 31 - - 2.4
28/08:53pm 0.6 -8.7 0.5 99 0.0 WSW 39 57 21 31 - - 2.4
28/08:30pm 0.3 -8.3 0.2 99 0.0 WSW 35 48 19 26 - - 2.0
28/08:00pm 0.2 -8.0 0.1 99 0.0 WSW 33 46 18 25 - - 1.8
28/07:38pm 0.0 -8.6 -0.1 99 0.0 WSW 35 54 19 29 - - 1.8
28/07:30pm 0.1 -8.0 0.0 99 0.0 WSW 32 46 17 25 - - 1.8
28/07:07pm 0.1 -8.0 0.0 99 0.0 WSW 32 52 17 28 - - 1.8
28/07:00pm 0.0 -9.0 -0.1 99 0.0 WSW 37 54 20 29 - - 1.8
28/06:49pm 0.0 -8.6 -0.1 99 0.0 WSW 35 59 19 32 - - 1.8
28/06:30pm 0.0 -8.1 -0.1 99 0.0 WSW 32 44 17 24 - - 1.8
28/06:00pm 0.0 -8.3 -0.1 99 0.0 WSW 33 54 18 29 - - 1.8
28/05:30pm 0.0 -8.1 -0.1 99 0.0 WSW 32 52 17 28 - - 1.8
28/05:00pm 0.5 -7.1 0.4 99 0.0 WSW 30 50 16 27 - - 1.8
28/04:30pm 0.4 -7.8 0.3 99 0.0 WSW 33 54 18 29 - - 1.8
28/04:00pm 0.2 -7.1 0.1 99 0.0 WSW 28 52 15 28 - - 1.8
28/03:55pm 0.4 -6.9 0.3 99 0.0 WSW 28 48 15 26 - - 1.8
28/03:30pm 0.9 -5.1 0.8 99 0.0 WSW 22 44 12 24 - - 1.4
28/03:12pm 1.3 -5.8 1.2 99 0.0 WSW 28 57 15 31 - - 1.4
28/03:00pm 1.3 -4.3 1.2 99 0.0 WSW 20 46 11 25 - - 1.4
28/02:30pm 1.1 -4.5 1.0 99 0.0 W 20 46 11 25 - - 1.4
28/02:00pm 1.5 -6.0 1.4 99 0.0 WSW 30 50 16 27 - - 1.4
28/01:49pm 1.4 -5.7 1.3 99 0.0 W 28 50 15 27 - - 1.4
28/01:30pm 1.6 -4.3 1.5 99 0.0 WSW 22 46 12 25 - - 1.4
28/01:00pm 1.7 -3.8 1.6 99 0.0 WSW 20 43 11 23 - - 1.4
28/12:30pm 2.0 -3.3 1.9 99 0.0 WSW 19 35 10 19 - - 1.0
28/12:00pm 1.8 -5.2 1.7 99 0.0 WSW 28 46 15 25 - - 1.0
28/11:40am 1.5 -5.6 1.4 99 0.0 WSW 28 56 15 30 - - 1.0
28/11:30am 1.5 -5.2 1.4 99 0.0 WSW 26 44 14 24 - - 0.8
28/11:00am 1.7 -5.7 1.6 99 0.0 WSW 30 54 16 29 - - 0.4
28/10:48am 1.6 -6.2 1.5 99 0.0 W 32 52 17 28 - - 0.4
28/10:30am 1.6 -5.5 1.5 99 0.0 W 28 43 15 23 - - 0.2
28/10:00am 1.7 -5.0 1.6 99 0.0 WSW 26 43 14 23 - - 0.0
28/09:30am 1.7 -6.3 1.6 99 0.0 WSW 33 61 18 33 - - 0.0
28/09:07am 1.6 -5.5 1.5 99 0.0 W 28 48 15 26 - - 0.0
28/09:00am 1.5 -5.2 1.4 99 0.0 W 26 37 14 20 - - 23.4
28/08:30am 1.6 -4.0 1.5 99 0.0 WSW 20 37 11 20 - - 23.4
28/08:00am 1.3 -4.7 1.2 99 0.0 WSW 22 41 12 22 - - 23.4
28/07:30am 1.3 -6.6 1.2 99 0.0 WSW 32 52 17 28 - - 23.4
28/07:14am 1.4 -5.7 1.3 99 0.0 WSW 28 54 15 29 - - 23.4
28/07:00am 1.5 -4.8 1.4 99 0.0 WSW 24 52 13 28 - - 22.8
28/06:30am 2.2 -5.2 2.1 99 0.0 W 30 50 16 27 - - 20.8
28/06:25am 2.2 -5.2 2.1 99 0.0 W 30 50 16 27 - - 20.8
28/06:00am 2.3 -4.3 2.2 99 0.0 W 26 43 14 23 - - 19.8
28/05:30am 2.0 -4.6 1.9 99 0.0 W 26 50 14 27 - - 19.0
28/05:00am 2.2 -2.7 2.1 99 0.0 W 17 28 9 15 - - 19.0
28/04:30am 2.4 -2.1 2.3 99 0.0 WSW 15 28 8 15 - - 19.0
28/04:00am 2.5 -2.7 2.4 99 0.0 WSW 19 39 10 21 - - 18.8
28/03:30am 2.7 -3.0 2.6 99 0.0 W 22 41 12 22 - - 18.8
28/03:00am 2.9 -1.5 2.8 99 0.0 WSW 15 35 8 19 - - 18.0
28/02:30am 3.3 -1.8 3.2 99 0.0 W 19 35 10 19 - - 17.2
28/02:00am 3.4 -2.6 3.3 99 0.0 W 24 39 13 21 - - 15.8
28/01:30am 3.3 -3.1 3.2 99 0.0 W 26 39 14 21 - - 15.4
28/01:00am 3.0 -2.3 2.9 99 0.0 W 20 33 11 18 - - 15.4
28/12:30am 2.9 -2.2 2.8 99 0.0 W 19 32 10 17 - - 15.4
28/12:00am 2.9 -4.0 2.8 99 0.0 W 28 37 15 20 - - 15.2
 
Date/Time
EST
Temp
°C
App
Temp
°C
Dew
Point
°C
Rel
Hum
%
Delta-T
°C
Wind Press
QNH
hPa
Press
MSL
hPa
Rain since
9am
mm
Dir  Spd
km/h
Gust
km/h
Spd
kts
Gust
kts
27/11:32pm 3.0 -5.2 2.9 99 0.0 WSW 35 56 19 30 - - 15.2
27/11:30pm 3.0 -5.5 2.9 99 0.0 WSW 37 56 20 30 - - 15.2
27/11:04pm 3.2 -4.9 3.1 99 0.0 W 35 56 19 30 - - 14.2
27/11:00pm 3.1 -5.4 3.0 99 0.0 W 37 56 20 30 - - 14.0
27/10:30pm 3.4 -5.5 3.3 99 0.0 W 39 61 21 33 - - 11.8
27/10:06pm 4.6 -2.9 4.5 99 0.0 W 33 54 18 29 - - 8.6
27/10:00pm 4.6 -4.0 4.5 99 0.0 W 39 57 21 31 - - 7.4
27/09:33pm 4.6 -3.6 4.5 99 0.0 W 37 57 20 31 - - 4.8
27/09:30pm 4.6 -3.6 4.5 99 0.0 W 37 52 20 28 - - 4.6
27/09:04pm 5.3 -2.4 5.2 99 0.0 W 35 56 19 30 - - 3.2
27/09:00pm 5.2 -2.9 5.1 99 0.0 W 37 56 20 30 - - 3.0
27/08:51pm 5.0 -3.6 4.9 99 0.0 W 39 52 21 28 - - 2.8
27/08:32pm 5.7 -2.3 5.6 99 0.0 NW 37 57 20 31 - - 2.4
27/08:30pm 6.5 -1.4 6.4 99 0.0 NW 37 54 20 29 - - 2.0
27/08:00pm 6.7 -1.9 6.6 99 0.0 NW 41 63 22 34 - - 1.8
27/07:30pm 6.6 -2.0 6.5 99 0.0 NW 41 63 22 34 - - 1.8
27/07:00pm 6.6 -3.7 6.5 99 0.0 NNW 50 70 27 38 - - 1.8
27/06:30pm 6.7 -3.2 6.6 99 0.0 NNW 48 67 26 36 - - 1.8
27/06:00pm 6.7 -1.9 6.6 99 0.0 NNW 41 65 22 35 - - 1.8
27/05:30pm 6.8 -2.1 6.7 99 0.0 NNW 43 61 23 33 - - 1.8
27/05:00pm 7.0 -2.8 6.9 99 0.0 N 48 70 26 38 - - 1.8
27/04:31pm 6.9 -3.0 6.8 99 0.0 NNW 48 72 26 39 - - 1.8
27/04:30pm 7.0 -2.8 6.9 99 0.0 NNW 48 65 26 35 - - 1.8
27/04:00pm 6.8 -2.7 6.7 99 0.0 NNW 46 69 25 37 - - 1.8
27/03:42pm 7.0 -1.1 6.9 99 0.0 NNW 39 59 21 32 - - 1.8
27/03:30pm 6.8 -0.2 6.7 99 0.0 NNW 33 48 18 26 - - 1.8
27/03:00pm 7.1 -0.2 7.0 99 0.0 NW 35 56 19 30 - - 0.8
27/02:33pm 7.7 -1.3 7.1 96 0.3 NNW 44 63 24 34 - - 0.0
27/02:30pm 7.7 -1.1 7.3 97 0.2 NNW 43 57 23 31 - - 0.0
27/02:03pm 7.6 -0.1 7.3 98 0.1 NNW 37 59 20 32 - - 0.0
27/02:00pm 7.5 0.2 7.2 98 0.1 NNW 35 54 19 29 - - 0.0
27/01:30pm 7.3 -1.2 7.0 98 0.1 NNW 41 70 22 38 - - 0.0
27/01:02pm 7.7 -1.3 7.1 96 0.3 NNW 44 63 24 34 - - 0.0
27/01:00pm 7.6 -1.9 6.9 95 0.3 NNW 46 63 25 34 - - 0.0
27/12:51pm 7.8 -1.1 6.7 93 0.5 NNW 43 61 23 33 - - 0.0
27/12:30pm 7.9 -1.2 6.8 93 0.5 NNW 44 61 24 33 - - 0.0
27/12:00pm 8.1 -1.5 6.2 88 0.9 NNW 46 70 25 38 - - 0.0
27/11:32am 8.0 -0.5 6.9 93 0.5 NNW 41 61 22 33 - - 0.0
27/11:30am 7.5 -1.5 6.4 93 0.5 NNW 43 61 23 33 - - 0.0
27/11:00am 8.3 -0.3 6.6 89 0.8 NNW 41 61 22 33 - - 0.0
27/10:55am 8.4 -0.2 6.5 88 0.9 NW 41 61 22 33 - - 0.0
27/10:30am 8.0 1.0 6.8 92 0.6 NW 33 48 18 26 - - 0.0
27/10:00am 7.0 0.8 6.1 94 0.4 NW 28 39 15 21 - - 0.0
27/09:30am 6.8 -0.7 6.2 96 0.3 NW 35 52 19 28 - - 0.0
27/09:00am 6.5 -1.5 5.9 96 0.3 NW 37 57 20 31 - - 0.2
27/08:39am 6.1 -1.9 5.8 98 0.1 NW 37 56 20 30 - - 0.2
27/08:30am 6.2 -2.5 5.8 97 0.2 NW 41 59 22 32 - - 0.2
27/08:16am 6.3 -2.1 5.7 96 0.3 NW 39 59 21 32 - - 0.2
27/08:00am 6.1 -2.3 5.8 98 0.1 NW 39 56 21 30 - - 0.2
27/07:31am 6.1 -1.5 5.7 97 0.2 NW 35 54 19 29 - - 0.2
27/07:30am 6.2 -1.8 5.8 97 0.2 NW 37 54 20 29 - - 0.2
27/07:00am 6.2 -1.4 5.9 98 0.1 NW 35 54 19 29 - - 0.2
27/06:34am 6.2 -1.8 5.9 98 0.1 NW 37 57 20 31 - - 0.0
27/06:30am 6.3 -2.0 6.0 98 0.1 NW 39 57 21 31 - - 0.0
27/06:25am 6.3 -1.6 6.0 98 0.1 NW 37 57 20 31 - - 0.0
27/06:00am 6.4 -2.7 6.1 98 0.1 NW 43 57 23 31 - - 0.0
27/05:30am 6.2 -2.9 6.1 99 0.0 NW 43 59 23 32 - - 0.0
27/05:00am 6.4 -1.9 6.3 99 0.0 NW 39 59 21 32 - - 0.0

Other Formats:

Comma delimited format used in spreadsheet applications
http://www.bom.gov.au/fwo/IDV60801/IDV60801.94833.axf

JavaScript Object Notation format (JSON) in row-major order
http://www.bom.gov.au/fwo/IDV60801/IDV60801.94833.json